createdAt,value
2018-03-23T00:00:51.900Z,0.50
2018-03-23T00:03:19.452Z,0.88
2018-03-23T00:09:07.715Z,1.45
2018-03-23T00:11:41.119Z,1.48
2018-03-23T00:14:13.939Z,0.22
2018-03-23T00:16:41.452Z,0.35
2018-03-23T00:19:09.168Z,1.30
2018-03-23T00:21:38.733Z,0.68
2018-03-23T00:27:09.763Z,0.73
2018-03-23T00:32:22.004Z,1.92
2018-03-23T00:34:49.537Z,2.67
2018-03-23T00:37:17.071Z,0.90
2018-03-23T00:42:30.360Z,0.82
2018-03-23T00:47:50.684Z,1.15
2018-03-23T00:50:21.301Z,1.17
2018-03-23T00:52:48.824Z,0.65
2018-03-23T00:55:16.329Z,3.33
2018-03-23T00:57:44.950Z,1.05
2018-03-23T01:00:25.940Z,1.73
2018-03-23T01:03:10.495Z,1.40
2018-03-23T01:05:38.026Z,2.05
2018-03-23T01:08:05.533Z,1.12
2018-03-23T01:10:33.065Z,0.77
2018-03-23T01:13:00.624Z,0.73
2018-03-23T01:15:30.545Z,1.58
2018-03-23T01:23:33.370Z,0.93
2018-03-23T01:26:00.880Z,1.23
2018-03-23T01:28:28.392Z,1.27
2018-03-23T01:30:55.952Z,0.82
2018-03-23T01:41:08.749Z,14.13
2018-03-23T01:43:36.282Z,17.40
2018-03-23T01:46:03.835Z,21.90
2018-03-23T01:48:31.344Z,18.98
2018-03-23T01:53:45.240Z,25.48
2018-03-23T01:58:48.574Z,22.77
2018-03-23T02:01:16.095Z,37.75
2018-03-23T02:03:43.599Z,28.95
2018-03-23T02:08:58.841Z,33.67
2018-03-23T02:17:20.978Z,23.77
2018-03-23T02:19:48.557Z,43.40
2018-03-23T02:22:16.077Z,39.90
2018-03-23T02:27:29.256Z,24.27
2018-03-23T02:30:08.988Z,37.85
2018-03-23T02:32:36.519Z,23.08
2018-03-23T02:35:04.086Z,21.98
2018-03-23T02:37:31.613Z,30.00
2018-03-23T02:39:59.145Z,42.65
2018-03-23T02:42:26.730Z,36.60
2018-03-23T02:47:33.025Z,30.73
2018-03-23T02:50:01.218Z,20.20
2018-03-23T02:52:28.770Z,34.95
2018-03-23T02:54:56.306Z,17.90
2018-03-23T02:57:23.880Z,43.72
2018-03-23T02:59:55.121Z,33.42
2018-03-23T03:02:26.950Z,34.67
2018-03-23T03:47:19.090Z,55.63
2018-03-23T03:52:47.944Z,50.42
2018-03-23T03:55:15.505Z,56.17
2018-03-23T03:57:43.073Z,38.80
2018-03-23T04:00:10.605Z,40.53
2018-03-23T04:02:38.114Z,44.63
2018-03-23T04:05:05.636Z,29.75
2018-03-23T04:07:33.186Z,37.25
2018-03-23T04:10:04.149Z,45.75
2018-03-23T04:12:35.397Z,30.05
2018-03-23T04:15:02.970Z,37.95
2018-03-23T04:17:30.468Z,21.35
2018-03-23T04:19:57.968Z,28.58
2018-03-23T04:22:25.502Z,17.75
2018-03-23T04:24:53.064Z,40.75
2018-03-23T04:27:22.305Z,24.42
2018-03-23T04:29:49.865Z,19.42
2018-03-23T04:32:17.409Z,34.22
2018-03-23T04:34:44.917Z,30.98
2018-03-23T04:37:12.466Z,35.88
2018-03-23T04:39:40.037Z,23.62
2018-03-23T04:42:09.275Z,27.05
2018-03-23T04:44:36.833Z,15.63
2018-03-23T04:47:05.391Z,19.17
2018-03-23T04:49:32.949Z,28.35
2018-03-23T04:52:00.465Z,19.58
2018-03-23T04:54:27.990Z,22.83
2018-03-23T04:56:55.537Z,22.77
2018-03-23T04:59:23.725Z,15.73
2018-03-23T05:01:57.258Z,34.58
2018-03-23T05:07:25.561Z,21.87
2018-03-23T05:09:53.070Z,21.33
2018-03-23T05:12:20.591Z,34.78
2018-03-23T05:14:48.195Z,21.70
2018-03-23T05:17:15.780Z,19.15
2018-03-23T05:19:43.332Z,24.83
2018-03-23T05:22:26.851Z,36.53
2018-03-23T05:24:54.393Z,30.75
2018-03-23T05:27:21.912Z,31.23
2018-03-23T05:29:49.444Z,17.83
2018-03-23T05:32:16.960Z,29.85
2018-03-23T05:34:44.553Z,40.30
2018-03-23T05:37:15.142Z,29.35
2018-03-23T05:39:42.692Z,28.35
2018-03-23T05:42:10.243Z,36.58
2018-03-23T05:44:37.775Z,37.85
2018-03-23T05:47:05.280Z,20.60
2018-03-23T05:49:32.843Z,29.98
2018-03-23T05:52:00.466Z,29.27
2018-03-23T05:54:28.001Z,32.70
2018-03-23T05:56:55.555Z,36.80
2018-03-23T05:59:23.077Z,22.62
2018-03-23T06:01:50.638Z,26.62
2018-03-23T06:04:18.136Z,33.83
2018-03-23T06:06:45.691Z,28.60
2018-03-23T06:09:13.249Z,25.88
2018-03-23T06:11:40.835Z,25.77
2018-03-23T06:14:08.473Z,38.92
2018-03-23T06:16:35.972Z,43.47
2018-03-23T06:19:03.492Z,38.22
2018-03-23T06:21:30.998Z,32.60
2018-03-23T06:23:58.586Z,40.70
2018-03-23T06:26:26.225Z,30.00
2018-03-23T06:28:54.496Z,26.70
2018-03-23T06:31:22.053Z,30.77
2018-03-23T06:33:49.602Z,41.28
2018-03-23T06:36:17.117Z,24.30
2018-03-23T06:38:44.625Z,33.05
2018-03-23T06:41:12.188Z,33.70
2018-03-23T06:43:39.794Z,26.83
2018-03-23T06:46:07.369Z,37.42
2018-03-23T06:48:35.795Z,28.50
2018-03-23T06:51:03.269Z,46.88
2018-03-23T06:53:30.801Z,23.52
2018-03-23T06:55:58.314Z,21.30
2018-03-23T06:58:25.873Z,38.28
2018-03-23T07:00:53.417Z,27.90
2018-03-23T07:03:21.031Z,28.05
2018-03-23T07:05:48.650Z,29.67
2018-03-23T07:08:16.177Z,23.20
2018-03-23T07:10:43.688Z,21.33
2018-03-23T07:13:11.210Z,26.17
2018-03-23T07:15:38.736Z,29.37
2018-03-23T07:18:09.078Z,30.25
2018-03-23T07:26:19.476Z,32.22
2018-03-23T07:28:47.020Z,21.42
2018-03-23T07:31:14.560Z,20.50
2018-03-23T07:33:42.119Z,25.25
2018-03-23T07:36:13.698Z,23.83
2018-03-23T07:38:41.900Z,20.90
2018-03-23T07:41:10.343Z,22.40
2018-03-23T07:43:37.832Z,25.92
2018-03-23T07:46:05.377Z,27.55
2018-03-23T07:48:32.916Z,24.00
2018-03-23T07:51:00.456Z,32.75
2018-03-23T07:53:28.097Z,30.08
2018-03-23T07:55:55.643Z,24.30
2018-03-23T07:58:23.247Z,29.48
2018-03-23T08:00:50.829Z,33.50
2018-03-23T08:03:18.332Z,42.05
2018-03-23T08:05:45.852Z,31.45
2018-03-23T08:08:13.404Z,29.30
2018-03-23T08:10:41.670Z,15.88
2018-03-23T08:16:05.196Z,23.55
2018-03-23T08:18:32.706Z,23.95
2018-03-23T08:21:00.244Z,27.40
2018-03-23T08:23:27.752Z,33.75
2018-03-23T08:25:55.769Z,23.20
2018-03-23T08:28:25.076Z,32.80
2018-03-23T08:30:53.559Z,26.37
2018-03-23T08:33:21.136Z,31.48
2018-03-23T08:35:48.654Z,22.65
2018-03-23T08:38:16.179Z,31.12
2018-03-23T08:40:43.681Z,32.47
2018-03-23T08:43:11.250Z,27.33
2018-03-23T08:45:38.781Z,21.20
2018-03-23T08:48:06.368Z,25.20
2018-03-23T08:50:34.021Z,19.33
2018-03-23T08:53:01.548Z,29.30
2018-03-23T08:55:29.084Z,35.00
2018-03-23T08:57:56.604Z,30.98
2018-03-23T09:00:24.140Z,18.17
2018-03-23T09:02:53.805Z,13.93
2018-03-23T09:05:22.755Z,34.63
2018-03-23T09:13:17.819Z,28.67
2018-03-23T09:15:45.347Z,31.17
2018-03-23T09:18:13.613Z,33.22
2018-03-23T09:20:42.142Z,28.62
2018-03-23T09:23:10.923Z,30.33
2018-03-23T09:25:38.493Z,22.33
2018-03-23T09:28:06.061Z,25.98
2018-03-23T09:30:33.603Z,30.62
2018-03-23T09:33:01.129Z,26.77
2018-03-23T09:35:28.977Z,30.02
2018-03-23T09:37:59.071Z,35.83
2018-03-23T09:40:26.704Z,35.03
2018-03-23T09:42:57.076Z,23.87
2018-03-23T09:45:24.613Z,26.98
2018-03-23T09:47:52.169Z,25.85
2018-03-23T09:50:19.668Z,27.15
2018-03-23T09:52:47.327Z,26.35
2018-03-23T09:55:14.990Z,18.17
2018-03-23T09:57:42.599Z,28.25
2018-03-23T10:00:13.606Z,27.02
2018-03-23T10:02:41.117Z,28.85
2018-03-23T10:05:08.702Z,34.55
2018-03-23T10:07:37.031Z,35.55
2018-03-23T10:10:04.649Z,37.30
2018-03-23T10:12:33.331Z,34.60
2018-03-23T10:15:01.112Z,30.33
2018-03-23T10:20:20.849Z,38.33
2018-03-23T10:22:48.376Z,34.93
2018-03-23T10:25:15.962Z,25.20
2018-03-23T10:35:57.953Z,36.20
2018-03-23T10:38:25.494Z,38.00
2018-03-23T10:40:53.053Z,42.17
2018-03-23T10:43:20.705Z,36.43
2018-03-23T10:45:53.934Z,31.63
2018-03-23T10:53:42.173Z,21.87
2018-03-23T10:56:09.693Z,24.07
2018-03-23T10:58:37.227Z,20.47
2018-03-23T11:01:10.559Z,24.45
2018-03-23T11:03:41.951Z,26.23
2018-03-23T11:06:21.990Z,31.17
2018-03-23T11:08:50.786Z,25.93
2018-03-23T11:11:18.312Z,30.40
2018-03-23T11:13:45.867Z,30.93
2018-03-23T11:16:13.838Z,20.08
2018-03-23T11:18:42.578Z,35.73
2018-03-23T11:23:59.045Z,25.17
2018-03-23T11:29:22.414Z,22.40
2018-03-23T11:31:49.967Z,28.47
2018-03-23T11:34:17.489Z,28.90
2018-03-23T11:36:45.177Z,26.27
2018-03-23T11:39:13.885Z,28.07
2018-03-23T11:41:49.291Z,26.17
2018-03-23T11:44:29.633Z,34.00
2018-03-23T11:46:57.209Z,20.10
2018-03-23T11:49:24.756Z,31.17
2018-03-23T11:51:52.311Z,26.73
2018-03-23T11:56:57.070Z,26.00
2018-03-23T11:59:30.864Z,30.27
2018-03-23T12:01:58.630Z,28.37
2018-03-23T12:04:26.157Z,28.77
2018-03-23T12:06:53.705Z,29.47
2018-03-23T12:09:21.234Z,24.53
2018-03-23T12:11:54.902Z,22.77
2018-03-23T12:17:13.073Z,45.53
2018-03-23T12:19:40.749Z,30.23
2018-03-23T12:22:08.981Z,30.73
2018-03-23T12:24:36.541Z,23.37
2018-03-23T12:27:04.073Z,23.90
2018-03-23T12:29:42.067Z,19.97
2018-03-23T12:32:14.072Z,26.00
2018-03-23T12:37:22.493Z,23.77
2018-03-23T12:39:50.125Z,22.13
2018-03-23T12:42:17.672Z,22.87
2018-03-23T12:53:33.705Z,17.13
2018-03-23T12:56:01.381Z,20.90
2018-03-23T12:58:28.901Z,35.43
2018-03-23T13:00:56.459Z,22.13
2018-03-23T13:11:54.656Z,21.10
2018-03-23T13:14:22.207Z,21.80
2018-03-23T13:16:49.741Z,16.13
2018-03-23T13:28:15.614Z,18.90
2018-03-23T13:30:43.192Z,19.90
2018-03-23T13:33:10.759Z,19.37
2018-03-23T13:35:38.325Z,16.60
2018-03-23T13:46:38.454Z,12.77
2018-03-23T13:49:06.054Z,14.87
2018-03-23T13:51:33.601Z,11.90
2018-03-23T14:02:47.177Z,16.90
2018-03-23T14:05:14.757Z,13.17
2018-03-23T14:07:42.314Z,16.77
2018-03-23T14:10:09.969Z,15.43
2018-03-23T14:21:46.465Z,31.87
2018-03-23T14:24:14.029Z,33.73
2018-03-23T14:26:41.594Z,17.03
2018-03-23T14:38:18.113Z,17.70
2018-03-23T14:40:45.646Z,15.40
2018-03-23T14:43:13.173Z,14.77
2018-03-23T14:45:45.124Z,18.60
2018-03-23T14:48:18.914Z,20.77
2018-03-23T14:50:49.848Z,22.30
2018-03-23T14:53:19.238Z,15.57
2018-03-23T14:55:46.790Z,18.70
2018-03-23T14:58:14.321Z,12.63
2018-03-23T15:00:41.923Z,14.77
2018-03-23T15:03:14.184Z,13.20
2018-03-23T15:05:45.390Z,17.40
2018-03-23T15:08:14.894Z,13.57
2018-03-23T15:10:47.901Z,15.77
2018-03-23T15:13:15.461Z,11.30
2018-03-23T15:15:42.999Z,13.63
2018-03-23T15:18:10.572Z,15.77
2018-03-23T15:23:14.385Z,23.63
2018-03-23T15:28:16.633Z,17.80
2018-03-23T15:30:44.133Z,24.33
2018-03-23T15:33:11.669Z,23.77
2018-03-23T15:35:39.232Z,24.20
2018-03-23T15:38:06.861Z,20.00
2018-03-23T15:40:35.057Z,15.53
2018-03-23T15:43:02.895Z,23.53
2018-03-23T15:45:30.486Z,18.63
2018-03-23T15:47:57.952Z,23.50
2018-03-23T15:50:25.485Z,19.13
2018-03-23T15:52:53.013Z,25.10
2018-03-23T15:55:23.069Z,20.20
2018-03-23T15:57:50.716Z,12.37
2018-03-23T16:00:19.313Z,14.63
2018-03-23T16:02:46.839Z,9.03
2018-03-23T16:05:14.366Z,7.43
2018-03-23T16:07:41.893Z,10.03
2018-03-23T16:10:09.609Z,13.00
2018-03-23T16:12:37.945Z,16.50
2018-03-23T16:15:07.224Z,13.83
2018-03-23T16:17:34.758Z,14.17
2018-03-23T16:20:02.287Z,14.53
2018-03-23T16:22:29.790Z,15.97
2018-03-23T16:24:57.294Z,9.77
2018-03-23T16:27:24.841Z,16.40
2018-03-23T16:29:53.374Z,15.40
2018-03-23T16:32:21.547Z,15.93
2018-03-23T16:34:51.369Z,15.57
2018-03-23T16:37:20.045Z,12.97
2018-03-23T16:39:47.558Z,19.47
2018-03-23T16:42:15.061Z,17.33
2018-03-23T16:44:42.609Z,20.23
2018-03-23T16:47:10.673Z,15.57
2018-03-23T16:49:38.953Z,19.20
2018-03-23T16:52:06.785Z,11.87
2018-03-23T16:54:35.126Z,14.00
2018-03-23T16:57:02.702Z,12.77
2018-03-23T16:59:30.254Z,10.90
2018-03-23T17:01:57.809Z,16.43
2018-03-23T17:04:26.090Z,21.03
2018-03-23T17:06:54.556Z,15.00
2018-03-23T17:09:23.147Z,13.93
2018-03-23T17:11:50.662Z,17.90
2018-03-23T17:14:18.262Z,19.63
2018-03-23T17:16:45.827Z,13.85
2018-03-23T17:19:13.421Z,14.17
2018-03-23T17:21:41.537Z,14.60
2018-03-23T17:24:10.156Z,15.47
2018-03-23T17:26:38.633Z,19.23
2018-03-23T17:29:06.168Z,16.07
2018-03-23T17:31:33.695Z,16.20
2018-03-23T17:34:01.253Z,20.15
2018-03-23T17:36:28.793Z,16.43
2018-03-23T17:38:57.409Z,18.33
2018-03-23T17:41:26.269Z,17.80
2018-03-23T17:43:55.173Z,21.50
2018-03-23T17:46:22.688Z,21.77
2018-03-23T17:48:50.355Z,16.30
2018-03-23T17:51:17.860Z,17.17
2018-03-23T17:53:45.425Z,17.93
2018-03-23T17:56:13.481Z,23.27
2018-03-23T17:58:42.253Z,24.48
2018-03-23T18:01:11.410Z,23.27
2018-03-23T18:03:40.064Z,16.80
2018-03-23T18:06:07.631Z,22.35
2018-03-23T18:08:35.170Z,20.97
2018-03-23T18:11:02.712Z,27.43
2018-03-23T18:13:33.079Z,25.85
2018-03-23T18:16:03.241Z,22.30
2018-03-23T18:18:31.173Z,24.60
2018-03-23T18:20:59.338Z,24.37
2018-03-23T18:23:26.962Z,18.85
2018-03-23T18:25:54.510Z,18.20
2018-03-23T18:28:22.083Z,20.20
2018-03-23T18:30:57.830Z,23.62
2018-03-23T18:33:30.238Z,20.37
2018-03-23T18:36:03.058Z,23.95
2018-03-23T18:38:30.637Z,22.20
2018-03-23T18:40:58.193Z,26.65
2018-03-23T18:43:25.731Z,23.90
2018-03-23T18:45:53.277Z,20.40
2018-03-23T18:57:26.977Z,23.00
2018-03-23T18:59:54.544Z,19.45
2018-03-23T19:02:22.593Z,25.57
2018-03-23T19:13:37.818Z,19.55
2018-03-23T19:16:05.470Z,19.85
2018-03-23T19:18:33.016Z,20.80
2018-03-23T19:30:30.173Z,19.20
2018-03-23T19:32:57.742Z,17.33
2018-03-23T19:35:25.379Z,18.02
2018-03-23T19:46:59.968Z,16.80
2018-03-23T19:49:27.449Z,12.63
2018-03-23T19:51:54.983Z,13.45
2018-03-23T19:54:22.440Z,13.45
2018-03-23T19:56:51.140Z,10.57
2018-03-23T20:04:30.556Z,12.13
2018-03-23T20:06:58.055Z,8.50
2018-03-23T20:09:25.572Z,11.15
2018-03-23T20:11:53.081Z,11.30
2018-03-23T20:14:23.461Z,13.90
2018-03-23T20:22:04.431Z,14.13
2018-03-23T20:24:31.914Z,10.68
2018-03-23T20:27:04.955Z,9.63
2018-03-23T20:29:32.461Z,8.40
2018-03-23T20:35:02.285Z,9.15
2018-03-23T20:37:33.613Z,8.40
2018-03-23T20:40:02.072Z,7.12
2018-03-23T20:42:29.565Z,8.60
2018-03-23T20:44:57.089Z,8.90
2018-03-23T20:47:26.650Z,9.10
2018-03-23T20:55:06.637Z,10.65
2018-03-23T20:57:34.163Z,8.23
2018-03-23T21:00:01.666Z,10.20
2018-03-23T21:02:29.168Z,7.47
2018-03-23T21:04:58.802Z,4.95
2018-03-23T21:12:39.118Z,7.10
2018-03-23T21:15:06.637Z,6.75
2018-03-23T21:17:34.129Z,7.10
2018-03-23T21:20:01.629Z,7.72
2018-03-23T21:22:30.083Z,6.37
2018-03-23T21:30:03.039Z,5.90
2018-03-23T21:32:30.511Z,6.68
2018-03-23T21:34:58.005Z,8.98
2018-03-23T21:37:25.495Z,7.43
2018-03-23T21:42:32.558Z,7.60
2018-03-23T21:45:06.449Z,8.13
2018-03-23T21:47:37.438Z,6.75
2018-03-23T21:50:04.982Z,11.12
2018-03-23T21:52:32.497Z,4.37
2018-03-23T21:54:59.984Z,7.40
2018-03-23T21:57:29.511Z,7.87
2018-03-23T21:59:57.904Z,7.53
2018-03-23T22:04:59.289Z,9.20
2018-03-23T22:07:26.779Z,8.43
2018-03-23T22:09:54.304Z,8.23
2018-03-23T22:12:21.797Z,4.75
2018-03-23T22:14:54.280Z,7.68
2018-03-23T22:20:03.019Z,5.60
2018-03-23T22:22:31.364Z,9.25
2018-03-23T22:24:58.856Z,6.62
2018-03-23T22:27:26.376Z,7.05
2018-03-23T22:29:53.881Z,6.87
2018-03-23T22:34:58.503Z,5.05
2018-03-23T22:37:30.329Z,5.93
2018-03-23T22:39:58.908Z,4.57
2018-03-23T22:42:26.386Z,7.62
2018-03-23T22:44:53.862Z,4.97
2018-03-23T22:47:21.371Z,8.38
2018-03-23T22:49:51.382Z,3.65
2018-03-23T22:52:18.872Z,8.57
2018-03-23T22:54:47.177Z,4.35
2018-03-23T22:57:15.493Z,5.85
2018-03-23T22:59:42.973Z,4.05
2018-03-23T23:02:10.465Z,2.83
2018-03-23T23:04:37.936Z,2.17
2018-03-23T23:07:06.322Z,3.25
2018-03-23T23:09:35.135Z,4.37
2018-03-23T23:12:03.421Z,4.80
2018-03-23T23:14:31.304Z,3.58
2018-03-23T23:16:58.803Z,5.30
2018-03-23T23:19:26.303Z,2.75
2018-03-23T23:21:53.816Z,3.03
2018-03-23T23:24:26.356Z,3.22
2018-03-23T23:26:57.501Z,3.53
2018-03-23T23:29:29.288Z,4.78
2018-03-23T23:32:01.365Z,4.80
2018-03-23T23:34:28.859Z,3.60
2018-03-23T23:36:56.340Z,4.28
2018-03-23T23:39:23.836Z,4.78
2018-03-23T23:41:51.379Z,3.40
2018-03-23T23:44:21.412Z,4.70
2018-03-23T23:49:29.495Z,4.47
2018-03-23T23:51:57.072Z,4.80
2018-03-23T23:54:24.581Z,3.40
2018-03-23T23:56:52.118Z,5.80
